Latest Weather Observations for Woomera

IDS60801

Issued at 8:31 am CDT Thursday 19 January 2017 (issued every 30 minutes, with the page automatically refreshed every 10 minutes)

About weather observations | Map of weather stations | Latest weather observations for SA | Other Formats
Station Details ID: 016001 Name: WOOMERA AERODROME Lat: -31.16 Lon: 136.81 Height: 166.6 m
Data from the previous 72 hours. | See also: Recent months at Woomera
Date/Time
CDT
Temp
°C
App
Temp
°C
Dew
Point
°C
Rel
Hum
%
Delta-T
°C
Wind Press
QNH
hPa
Press
MSL
hPa
Rain since
9am
mm
Dir  Spd
km/h
Gust
km/h
Spd
kts
Gust
kts
19/08:00am 30.0 30.1 19.1 52 7.1 NNE 17 26 9 14 1007.5 1006.5 0.0
19/07:30am 29.5 29.7 17.7 49 7.6 NE 13 15 7 8 1007.6 1006.6 0.0
19/07:00am 28.0 27.8 16.6 50 7.1 ENE 13 17 7 9 1007.2 1006.2 0.0
19/06:30am 27.4 26.7 16.4 51 6.9 E 15 17 8 9 1006.8 1005.8 0.0
19/06:00am 27.0 26.6 16.3 52 6.7 ESE 13 15 7 8 1006.9 1005.9 0.0
19/05:30am 27.2 25.7 16.2 51 6.8 E 19 20 10 11 1006.7 1005.7 0.0
19/05:00am 27.5 25.9 16.1 49 7.1 ESE 19 22 10 12 1006.7 1005.7 0.0
19/04:30am 27.7 26.1 16.0 49 7.3 ESE 19 24 10 13 1006.7 1005.7 0.0
19/04:00am 27.8 25.9 15.8 48 7.4 ESE 20 24 11 13 1006.8 1005.8 0.0
19/03:30am 28.1 26.2 15.7 46 7.7 ESE 20 26 11 14 1006.9 1005.9 0.0
19/03:00am 28.3 26.3 15.6 46 7.9 ESE 20 26 11 14 1007.3 1006.3 0.0
19/02:30am 28.2 26.1 15.1 44 8.0 ESE 20 26 11 14 1007.6 1006.6 0.0
19/02:00am 28.4 25.7 14.6 43 8.4 SE 22 28 12 15 1007.7 1006.7 0.0
19/01:30am 28.5 25.7 14.3 41 8.6 SE 22 28 12 15 1008.0 1007.0 0.0
19/01:00am 28.8 25.6 14.2 40 8.8 SE 24 32 13 17 1008.3 1007.3 0.0
19/12:30am 29.1 25.8 14.1 40 9.1 SE 24 32 13 17 1008.5 1007.5 0.0
19/12:00am 29.5 25.9 14.1 39 9.3 SE 26 35 14 19 1008.6 1007.6 0.0
 
Date/Time
CDT
Temp
°C
App
Temp
°C
Dew
Point
°C
Rel
Hum
%
Delta-T
°C
Wind Press
QNH
hPa
Press
MSL
hPa
Rain since
9am
mm
Dir  Spd
km/h
Gust
km/h
Spd
kts
Gust
kts
18/11:30pm 29.9 25.9 14.0 37 9.7 SE 28 35 15 19 1008.5 1007.5 0.0
18/11:00pm 30.5 27.0 14.6 38 9.7 SSE 26 35 14 19 1008.5 1007.5 0.0
18/10:30pm 31.4 27.3 15.0 37 10.2 SE 30 37 16 20 1008.5 1007.5 0.0
18/10:00pm 33.5 30.5 16.8 36 10.7 SE 28 37 15 20 1008.1 1007.1 0.0
18/09:30pm 34.1 33.2 16.9 36 11.1 SE 17 26 9 14 1008.0 1007.0 0.0
18/09:00pm 33.7 35.2 20.5 46 8.9 S 13 17 7 9 1007.8 1006.8 0.0
18/08:30pm 34.0 35.4 20.4 45 9.2 N 13 19 7 10 1007.3 1006.3 0.0
18/08:00pm 34.9 34.3 20.5 43 9.7 N 24 32 13 17 1007.4 1006.4 0.0
18/07:30pm 37.8 36.2 16.1 27 14.0 E 19 22 10 12 1007.0 1006.0 0.0
18/07:00pm 37.9 35.2 15.7 27 14.2 ESE 24 32 13 17 1006.9 1005.9 0.0
18/06:30pm 38.9 37.3 15.9 25 14.8 ESE 19 28 10 15 1006.5 1005.5 0.0
18/06:00pm 39.2 36.9 15.6 25 15.1 SE 22 30 12 16 1006.2 1005.2 0.0
18/05:30pm 39.2 37.2 15.6 25 15.1 S 20 30 11 16 1006.4 1005.4 0.0
18/05:00pm 39.0 38.8 16.6 27 14.5 SE 13 22 7 12 1006.6 1005.6 0.0
18/04:30pm 38.7 38.0 16.3 26 14.5 SSE 15 26 8 14 1007.0 1006.0 0.0
18/04:00pm 38.1 37.4 16.4 27 14.0 SE 15 20 8 11 1007.4 1006.4 0.0
18/03:30pm 37.3 37.7 16.3 29 13.5 SE 9 13 5 7 1007.7 1006.7 0.0
18/03:00pm 36.7 36.3 16.3 30 13.1 SE 13 22 7 12 1008.1 1007.1 0.0
18/02:30pm 36.3 36.9 15.9 29 13.0 SE 7 15 4 8 1008.6 1007.6 0.0
18/02:00pm 35.6 35.5 15.9 31 12.5 ESE 11 17 6 9 1008.9 1007.9 0.0
18/01:30pm 34.9 34.9 15.3 31 12.3 SE 9 15 5 8 1009.3 1008.3 0.0
18/01:00pm 34.6 32.8 15.5 32 12.0 E 19 26 10 14 1009.6 1008.6 0.0
18/12:30pm 34.4 32.5 15.3 31 12.0 ESE 19 28 10 15 1009.9 1008.9 0.0
18/12:00pm 33.1 30.6 15.1 33 11.2 SE 22 35 12 19 1010.0 1009.0 0.0
18/11:30am 31.8 29.2 14.9 36 10.5 SSE 22 32 12 17 1010.1 1009.1 0.0
18/11:00am 30.9 28.3 14.9 37 9.9 SSE 22 28 12 15 1010.3 1009.3 0.0
18/10:30am 30.1 27.9 15.0 40 9.3 SSE 20 26 11 14 1010.2 1009.2 0.0
18/10:00am 28.7 26.0 15.6 45 8.1 S 24 28 13 15 1010.4 1009.4 0.0
18/09:30am 28.1 26.0 15.1 45 8.0 SSE 20 30 11 16 1010.5 1009.6 0.0
18/09:00am 26.5 23.6 15.2 49 6.9 SSE 24 28 13 15 1010.3 1009.3 0.0
18/08:30am 26.0 23.2 15.4 52 6.5 SSE 24 28 13 15 1010.3 1009.3 0.0
18/08:00am 24.8 21.8 14.9 54 6.0 SE 24 35 13 19 1010.2 1009.2 0.0
18/07:30am 24.7 20.0 14.8 54 6.0 SE 33 39 18 21 1009.4 1008.4 0.0
18/07:00am 24.2 21.2 14.9 56 5.6 SSE 24 32 13 17 1009.1 1008.1 0.0
18/06:30am 24.2 20.7 14.6 55 5.8 SSE 26 32 14 17 1008.7 1007.7 0.0
18/06:00am 24.8 21.6 14.3 52 6.3 SSE 24 32 13 17 1008.1 1007.1 0.0
18/05:30am 25.4 21.4 14.2 50 6.7 SSE 28 35 15 19 1007.9 1006.9 0.0
18/05:00am 26.4 23.1 12.8 43 8.0 SSE 22 30 12 16 1007.9 1006.9 0.0
18/04:30am 27.3 24.0 11.7 37 9.0 S 20 28 11 15 1007.9 1006.9 0.0
18/04:00am 27.8 23.9 10.9 35 9.7 SSE 22 28 12 15 1007.2 1006.2 0.0
18/03:30am 27.9 24.9 10.6 34 9.9 SSW 17 22 9 12 1007.4 1006.4 0.0
18/03:00am 28.7 25.6 12.2 36 9.7 ESE 20 24 11 13 1007.0 1006.0 0.0
18/02:30am 28.8 24.2 9.5 30 10.9 SE 24 33 13 18 1007.5 1006.5 0.0
18/02:00am 28.7 22.4 8.9 29 11.0 SE 32 39 17 21 1007.6 1006.6 0.0
18/01:30am 28.8 23.3 9.0 29 11.0 ESE 28 35 15 19 1007.9 1006.9 0.0
18/01:00am 29.5 23.2 7.4 25 12.0 SE 30 43 16 23 1008.3 1007.3 0.0
18/12:30am 30.3 20.8 6.9 23 12.7 SE 46 67 25 36 1008.0 1007.0 0.0
18/12:27am 30.4 20.6 7.0 23 12.7 SE 48 67 26 36 1008.0 1007.0 0.0
18/12:22am 30.7 20.4 6.6 22 13.0 SE 50 67 27 36 1007.6 1006.6 0.0
18/12:13am 31.9 24.4 6.2 20 13.9 SSE 35 54 19 29 1007.6 1006.6 0.0
18/12:05am 33.5 28.8 5.9 18 15.0 SE 20 46 11 25 1007.8 1006.8 0.0
18/12:00am 34.2 30.7 7.3 19 15.0 ESE 15 17 8 9 1007.2 1006.2 0.0
 
Date/Time
CDT
Temp
°C
App
Temp
°C
Dew
Point
°C
Rel
Hum
%
Delta-T
°C
Wind Press
QNH
hPa
Press
MSL
hPa
Rain since
9am
mm
Dir  Spd
km/h
Gust
km/h
Spd
kts
Gust
kts
17/11:30pm 34.7 31.1 6.9 18 15.4 ENE 15 20 8 11 1007.5 1006.5 0.0
17/11:00pm 33.5 31.0 6.7 19 14.7 SSE 9 13 5 7 1007.0 1006.0 0.0
17/10:30pm 33.4 30.3 7.4 20 14.5 S 13 15 7 8 1006.8 1005.8 0.0
17/10:00pm 35.0 31.5 5.4 16 16.0 SSW 13 13 7 7 1006.4 1005.4 0.0
17/09:30pm 35.7 32.5 6.9 17 16.1 SSW 13 13 7 7 1006.2 1005.2 0.0
17/09:00pm 35.9 32.7 7.0 17 16.2 WSW 13 15 7 8 1006.1 1005.1 0.0
17/08:30pm 38.0 35.7 5.9 14 17.9 WSW 7 9 4 5 1005.7 1004.7 0.0
17/08:00pm 39.9 37.3 6.3 13 18.9 WSW 9 13 5 7 1005.4 1004.4 0.0
17/07:30pm 41.5 36.6 2.3 9 21.0 W 17 26 9 14 1005.1 1004.0 0.0
17/07:00pm 41.7 36.3 2.4 9 21.1 WNW 20 26 11 14 1005.2 1004.1 0.0
17/06:30pm 42.1 38.7 4.2 10 21.0 NW 11 15 6 8 1005.0 1003.9 0.0
17/06:00pm 42.7 37.0 3.1 9 21.6 WNW 22 37 12 20 1005.1 1004.0 0.0
17/05:30pm 42.4 38.0 2.9 9 21.5 NNW 15 26 8 14 1005.4 1004.4 0.0
17/05:00pm 42.8 38.9 3.2 9 21.6 NW 13 24 7 13 1005.5 1004.5 0.0
17/04:30pm 42.7 36.0 1.5 8 22.0 WNW 26 39 14 21 1005.6 1004.6 0.0
17/04:00pm 43.0 38.7 3.4 9 21.7 NNW 15 26 8 14 1005.9 1004.9 0.0
17/03:30pm 43.0 37.7 1.7 8 22.1 NNW 19 33 10 18 1006.1 1005.1 0.0
17/03:00pm 41.8 35.9 -1.0 7 21.9 N 20 35 11 19 1006.5 1005.5 0.0
17/02:30pm 42.4 37.8 1.3 8 21.8 N 15 26 8 14 1006.8 1005.8 0.0
17/02:00pm 41.8 35.8 0.8 8 21.5 N 22 32 12 17 1007.4 1006.4 0.0
17/01:30pm 41.3 35.2 0.5 8 21.3 N 22 39 12 21 1007.6 1006.6 0.0
17/01:00pm 40.6 33.8 -1.9 7 21.3 NNW 24 39 13 21 1008.2 1007.2 0.0
17/12:30pm 40.6 34.1 0.0 8 20.9 N 24 39 13 21 1008.6 1007.6 0.0
17/12:00pm 39.6 33.2 0.9 9 20.1 NNE 24 32 13 17 1008.8 1007.8 0.0
17/11:30am 38.6 31.3 0.1 9 19.6 NNE 28 33 15 18 1009.0 1008.0 0.0
17/11:00am 37.1 30.6 0.4 10 18.6 NNE 24 30 13 16 1009.2 1008.2 0.0
17/10:30am 36.1 30.3 2.2 12 17.6 NNE 22 30 12 16 1009.4 1008.4 0.0
17/10:00am 34.6 28.8 2.2 13 16.7 NE 22 30 12 16 1009.6 1008.6 0.0
17/09:30am 33.1 28.4 3.0 15 15.6 NE 17 24 9 13 1009.6 1008.6 0.0
17/09:00am 31.2 28.6 6.3 21 13.4 ENE 9 13 5 7 1009.5 1008.5 0.0
17/08:30am 29.4 27.3 6.7 24 12.2 E 7 9 4 5 1009.2 1008.2 0.0
17/08:00am 27.2 24.3 6.6 27 10.9 E 11 13 6 7 1009.0 1008.0 0.0
17/07:30am 25.9 22.7 7.0 30 10.0 E 13 17 7 9 1008.8 1007.8 0.0
17/07:00am 24.2 20.0 5.5 30 9.5 E 17 19 9 10 1008.4 1007.4 0.0
17/06:30am 23.6 19.7 5.5 31 9.2 ESE 15 17 8 9 1008.2 1007.2 0.0
17/06:00am 23.8 20.4 5.7 31 9.3 ESE 13 15 7 8 1008.0 1007.0 0.0
17/05:30am 23.8 20.1 6.1 32 9.1 ESE 15 15 8 8 1007.9 1006.9 0.0
17/05:00am 24.0 20.8 6.7 33 9.0 ESE 13 15 7 8 1007.7 1006.7 0.0
17/04:30am 24.7 21.8 6.4 31 9.5 ESE 11 11 6 6 1007.8 1006.8 0.0
17/04:00am 23.8 21.5 9.0 39 8.0 ESE 11 15 6 8 1007.8 1006.8 0.0
17/03:30am 25.1 21.6 7.3 32 9.5 ESE 15 15 8 8 1007.7 1006.7 0.0
17/03:00am 25.1 22.1 7.7 33 9.3 ESE 13 15 7 8 1008.0 1007.0 0.0
17/02:30am 25.8 22.1 7.9 32 9.6 ESE 17 19 9 10 1008.2 1007.2 0.0
17/02:00am 24.8 21.7 8.7 36 8.7 E 15 17 8 9 1008.5 1007.5 0.0
17/01:30am 26.4 22.9 7.4 30 10.2 ESE 15 15 8 8 1008.7 1007.7 0.0
17/01:00am 27.2 24.1 7.1 28 10.7 ESE 13 17 7 9 1008.8 1007.8 0.0
17/12:30am 28.1 25.1 6.2 25 11.6 ESE 11 13 6 7 1008.8 1007.8 0.0
17/12:00am 28.0 25.0 6.2 25 11.5 ESE 11 13 6 7 1009.0 1008.0 0.0
 
Date/Time
CDT
Temp
°C
App
Temp
°C
Dew
Point
°C
Rel
Hum
%
Delta-T
°C
Wind Press
QNH
hPa
Press
MSL
hPa
Rain since
9am
mm
Dir  Spd
km/h
Gust
km/h
Spd
kts
Gust
kts
16/11:30pm 28.4 24.7 6.5 25 11.7 ESE 15 15 8 8 1009.0 1008.0 0.0
16/11:00pm 29.2 26.2 6.0 23 12.3 ESE 11 13 6 7 1009.1 1008.1 0.0
16/10:30pm 29.9 26.1 5.9 22 12.8 ESE 15 15 8 8 1009.2 1008.2 0.0
16/10:00pm 30.6 27.7 6.5 22 13.0 ESE 11 13 6 7 1009.1 1008.1 0.0
16/09:30pm 31.4 28.4 5.8 20 13.7 E 11 13 6 7 1008.9 1007.9 0.0
16/09:00pm 31.8 28.1 4.6 18 14.3 E 13 15 7 8 1008.8 1007.8 0.0
16/08:30pm 32.5 28.8 4.3 17 14.8 ENE 13 13 7 7 1008.8 1007.8 0.0
16/08:00pm 35.5 30.8 0.6 11 17.6 E 15 17 8 9 1008.7 1007.7 0.0
16/07:30pm 36.6 32.0 -1.4 9 18.7 E 13 20 7 11 1008.5 1007.5 0.0
16/07:00pm 37.0 33.0 0.4 10 18.5 ENE 11 20 6 11 1008.4 1007.4 0.0
16/06:30pm 37.1 33.3 -1.0 9 18.9 SE 9 11 5 6 1008.3 1007.3 0.0
16/06:00pm 37.4 32.5 -0.8 9 19.1 E 15 20 8 11 1008.3 1007.3 0.0
16/05:30pm 37.1 32.9 -1.0 9 18.9 E 11 19 6 10 1008.4 1007.4 0.0
16/05:00pm 37.2 33.2 -2.5 8 19.2 E 9 20 5 11 1008.7 1007.7 0.0
16/04:30pm 37.3 33.1 -0.9 9 19.0 NW 11 17 6 9 1009.1 1008.1 0.0
16/04:00pm 37.3 33.7 0.6 10 18.7 N 9 17 5 9 1009.2 1008.2 0.0
16/03:30pm 36.3 32.4 -1.6 9 18.6 NE 9 15 5 8 1009.6 1008.6 0.0
16/03:00pm 36.0 32.6 -0.4 10 18.1 NNE 7 13 4 7 1009.8 1008.8 0.0
16/02:30pm 35.9 32.3 0.9 11 17.8 NE 9 19 5 10 1010.3 1009.3 0.0
16/02:00pm 34.8 30.5 -1.3 10 17.6 NNE 11 22 6 12 1010.7 1009.8 0.0
16/01:30pm 35.0 29.8 2.5 13 16.8 N 19 26 10 14 1011.2 1010.2 0.0
16/01:00pm 34.4 30.4 3.1 14 16.3 NNE 13 19 7 10 1011.5 1010.5 0.0
16/12:30pm 33.7 30.2 5.3 17 15.3 NNW 13 24 7 13 1011.7 1010.7 0.0
16/12:00pm 33.1 28.5 3.9 16 15.3 NNE 17 22 9 12 1011.9 1010.9 0.0
16/11:30am 32.8 28.0 5.4 18 14.7 NNE 20 28 11 15 1012.3 1011.3 0.0
16/11:00am 31.9 26.8 6.2 20 13.9 NNE 22 30 12 16 1012.6 1011.6 0.0
16/10:30am 30.5 26.0 7.0 23 12.8 NE 20 26 11 14 1013.0 1012.0 0.0
16/10:00am 29.1 26.7 8.7 28 11.3 ENE 11 15 6 8 1013.2 1012.2 0.0
16/09:30am 27.6 24.9 9.0 31 10.3 ENE 13 17 7 9 1013.4 1012.4 0.0
16/09:00am 25.8 23.1 10.4 38 8.6 ENE 15 17 8 9 1013.2 1012.2 0.0

Other Formats:

Comma delimited format used in spreadsheet applications
http://www.bom.gov.au/fwo/IDS60801/IDS60801.94659.axf

JavaScript Object Notation format (JSON) in row-major order
http://www.bom.gov.au/fwo/IDS60801/IDS60801.94659.json